Noblesboro, New York
Current Conditions -  °F | °C
As of 11:53 PM on Saturday 20 Dec 2014 (Local Time) from KRME Reporting Station
Overcast Overcast  
Wind Chill: 18°   Ceiling: 3000
Heat Index: 25°   Visibility: 10mi
Dew Point: 20°   Wind: 6mph
Humidity: 81%   Direction: 90°E
Pressure: 30.31"   Gusts: NA
Location:  43.4607°N, 74.933°W
Report Text: KRME 210453Z AUTO 09005KT 10SM OVC030 M04/M07 A3031 RMK AO2 SLP268 T10391067 410171083
Loading
Personal Weather Stations






























Interactive Weather Map New forecast layout! Learn more

10-Day Weather Forecast

Advertisements
Track Severe Weather on mobile